CFG9EF LEPA-EDDF
Flight info
| Callsign | CFG9EF |
|---|---|
| Flight time | 1h 46m |
| Altitude | 36000 |
| Route | MEROS DCT LAPIT DCT CHELY DCT LUMAS DCT MAXIR DCT LUSOL DCT BODRU DCT OKTET DCT IRMAR DCT KINES DCT VANAS DCT ESOKO DCT GODRA DCT LADOL T163 EMPAX EMPAX5B |
| Aircraft | A320/M-SDE3FGHIRWY/LB1 |
Departure
| Time | 2026-05-07 11:40 |
|---|---|
| Airport | Palma de Mallorca Airport (LEPA) |
Arrival
| Time | 2026-05-07 13:27 |
|---|---|
| Airport | Frankfurt Main Airport (EDDF) |
| Time | Latitude | Longitude | Altitude | Speed | Heading |
|---|---|---|---|---|---|
| 2026-05-07 11:29 | 39.55002 | 2.73725 | 38 ft | 0 kts | 239° |
| 2026-05-07 11:33 | 39.55002 | 2.73727 | 37 ft | 2 kts | 239° |
| 2026-05-07 11:33 | 39.55015 | 2.73756 | 37 ft | 4 kts | 240° |
| 2026-05-07 11:33 | 39.55029 | 2.73786 | 35 ft | 4 kts | 240° |
| 2026-05-07 11:33 | 39.55040 | 2.73810 | 38 ft | 4 kts | 222° |
| 2026-05-07 11:34 | 39.55063 | 2.73823 | 37 ft | 4 kts | 174° |
| 2026-05-07 11:34 | 39.55086 | 2.73814 | 35 ft | 4 kts | 149° |
| 2026-05-07 11:34 | 39.55102 | 2.73801 | 34 ft | 0 kts | 149° |
| 2026-05-07 11:36 | 39.55063 | 2.73832 | 37 ft | 11 kts | 148° |
| 2026-05-07 11:36 | 39.54992 | 2.73888 | 37 ft | 13 kts | 149° |
| 2026-05-07 11:36 | 39.54935 | 2.73971 | 38 ft | 13 kts | 79° |
| 2026-05-07 11:37 | 39.54909 | 2.74060 | 38 ft | 14 kts | 148° |
| 2026-05-07 11:37 | 39.54805 | 2.74122 | 38 ft | 17 kts | 190° |
| 2026-05-07 11:37 | 39.54716 | 2.73974 | 38 ft | 24 kts | 238° |
| 2026-05-07 11:37 | 39.54630 | 2.73795 | 38 ft | 22 kts | 238° |
| 2026-05-07 11:38 | 39.54552 | 2.73634 | 38 ft | 20 kts | 239° |
| 2026-05-07 11:38 | 39.54484 | 2.73485 | 38 ft | 18 kts | 240° |
| 2026-05-07 11:38 | 39.54421 | 2.73352 | 38 ft | 16 kts | 238° |
| 2026-05-07 11:38 | 39.54363 | 2.73229 | 38 ft | 17 kts | 240° |
| 2026-05-07 11:39 | 39.54282 | 2.73187 | 37 ft | 13 kts | 138° |
| 2026-05-07 11:39 | 39.54267 | 2.73304 | 38 ft | 14 kts | 90° |
| 2026-05-07 11:39 | 39.54274 | 2.73447 | 38 ft | 24 kts | 68° |
| 2026-05-07 11:39 | 39.54477 | 2.73912 | 38 ft | 93 kts | 59° |
| 2026-05-07 11:40 | 39.54916 | 2.74845 | 37 ft | 147 kts | 59° |
| 2026-05-07 11:40 | 39.55474 | 2.76047 | 495 ft | 154 kts | 60° |
| 2026-05-07 11:40 | 39.56017 | 2.77248 | 1212 ft | 155 kts | 60° |
| 2026-05-07 11:40 | 39.56593 | 2.78516 | 1636 ft | 174 kts | 61° |
| 2026-05-07 11:41 | 39.57248 | 2.79954 | 1928 ft | 196 kts | 61° |
| 2026-05-07 11:41 | 39.57971 | 2.81539 | 2406 ft | 209 kts | 61° |
| 2026-05-07 11:41 | 39.58711 | 2.83157 | 3210 ft | 210 kts | 60° |
| 2026-05-07 11:41 | 39.59466 | 2.84805 | 3819 ft | 216 kts | 60° |
| 2026-05-07 11:42 | 39.60236 | 2.86485 | 4388 ft | 217 kts | 60° |
| 2026-05-07 11:42 | 39.61008 | 2.88173 | 5158 ft | 219 kts | 60° |
| 2026-05-07 11:42 | 39.61793 | 2.89893 | 5860 ft | 224 kts | 60° |
| 2026-05-07 11:42 | 39.62603 | 2.91685 | 6383 ft | 240 kts | 61° |
| 2026-05-07 11:43 | 39.63468 | 2.93664 | 6731 ft | 264 kts | 61° |
| 2026-05-07 11:43 | 39.64380 | 2.95774 | 7280 ft | 276 kts | 62° |
| 2026-05-07 11:43 | 39.65328 | 2.97975 | 8019 ft | 282 kts | 61° |
| 2026-05-07 11:43 | 39.66294 | 3.00207 | 8788 ft | 287 kts | 61° |
| 2026-05-07 11:44 | 39.67419 | 3.02370 | 9551 ft | 292 kts | 52° |
| 2026-05-07 11:44 | 39.68704 | 3.04455 | 10246 ft | 300 kts | 52° |
| 2026-05-07 11:44 | 39.70071 | 3.06633 | 10480 ft | 323 kts | 51° |
| 2026-05-07 11:44 | 39.71547 | 3.08968 | 10681 ft | 346 kts | 51° |
| 2026-05-07 11:45 | 39.73112 | 3.11444 | 11061 ft | 360 kts | 51° |
| 2026-05-07 11:45 | 39.74716 | 3.13989 | 11691 ft | 366 kts | 51° |
| 2026-05-07 11:45 | 39.76337 | 3.16569 | 12352 ft | 371 kts | 51° |
| 2026-05-07 11:45 | 39.77976 | 3.19188 | 13015 ft | 375 kts | 51° |
| 2026-05-07 11:46 | 39.79631 | 3.21841 | 13678 ft | 380 kts | 51° |
| 2026-05-07 11:46 | 39.81306 | 3.24526 | 14255 ft | 384 kts | 51° |
| 2026-05-07 11:46 | 39.82997 | 3.27243 | 14830 ft | 388 kts | 52° |
| 2026-05-07 11:46 | 39.84707 | 3.29988 | 15405 ft | 392 kts | 51° |
| 2026-05-07 11:47 | 39.86435 | 3.32760 | 15979 ft | 396 kts | 51° |
| 2026-05-07 11:47 | 39.88178 | 3.35565 | 16545 ft | 400 kts | 51° |
| 2026-05-07 11:47 | 39.89934 | 3.38396 | 17104 ft | 404 kts | 51° |
| 2026-05-07 11:47 | 39.91706 | 3.41257 | 17664 ft | 408 kts | 51° |
| 2026-05-07 11:48 | 39.93504 | 3.44156 | 18236 ft | 412 kts | 51° |
| 2026-05-07 11:48 | 39.95315 | 3.47075 | 18710 ft | 416 kts | 51° |
| 2026-05-07 11:48 | 39.97142 | 3.50025 | 19161 ft | 421 kts | 51° |
| 2026-05-07 11:48 | 39.98992 | 3.53016 | 19629 ft | 425 kts | 51° |
| 2026-05-07 11:49 | 40.00857 | 3.56035 | 20082 ft | 430 kts | 51° |
| 2026-05-07 11:49 | 40.02744 | 3.59092 | 20534 ft | 435 kts | 51° |
| 2026-05-07 11:49 | 40.04651 | 3.62184 | 20974 ft | 439 kts | 51° |
| 2026-05-07 11:49 | 40.06577 | 3.65308 | 21400 ft | 444 kts | 51° |
| 2026-05-07 11:50 | 40.08496 | 3.68423 | 21810 ft | 448 kts | 51° |
| 2026-05-07 11:50 | 40.10487 | 3.71657 | 22217 ft | 453 kts | 51° |
| 2026-05-07 11:50 | 40.12443 | 3.74842 | 22612 ft | 458 kts | 50° |
| 2026-05-07 11:50 | 40.14440 | 3.78098 | 23004 ft | 462 kts | 50° |
| 2026-05-07 11:51 | 40.16459 | 3.81393 | 23390 ft | 466 kts | 50° |
| 2026-05-07 11:51 | 40.18492 | 3.84717 | 23732 ft | 470 kts | 50° |
| 2026-05-07 11:51 | 40.20540 | 3.88067 | 24058 ft | 473 kts | 50° |
| 2026-05-07 11:51 | 40.22598 | 3.91433 | 24378 ft | 476 kts | 50° |
| 2026-05-07 11:52 | 40.24678 | 3.94838 | 24689 ft | 479 kts | 50° |
| 2026-05-07 11:52 | 40.26761 | 3.98252 | 25008 ft | 482 kts | 50° |
| 2026-05-07 11:52 | 40.28855 | 4.01693 | 25313 ft | 485 kts | 51° |
| 2026-05-07 11:52 | 40.30967 | 4.05172 | 25609 ft | 488 kts | 51° |
| 2026-05-07 11:53 | 40.33084 | 4.08662 | 25914 ft | 491 kts | 51° |
| 2026-05-07 11:53 | 40.35211 | 4.12167 | 26199 ft | 494 kts | 51° |
| 2026-05-07 11:53 | 40.37360 | 4.15712 | 26472 ft | 497 kts | 51° |
| 2026-05-07 11:53 | 40.39512 | 4.19267 | 26769 ft | 499 kts | 51° |
| 2026-05-07 11:54 | 40.41678 | 4.22846 | 27048 ft | 502 kts | 51° |
| 2026-05-07 11:54 | 40.43853 | 4.26444 | 27319 ft | 505 kts | 51° |
| 2026-05-07 11:54 | 40.46140 | 4.29953 | 27587 ft | 506 kts | 44° |
| 2026-05-07 11:54 | 40.48777 | 4.33003 | 27844 ft | 506 kts | 34° |
| 2026-05-07 11:55 | 40.51730 | 4.35501 | 28090 ft | 504 kts | 24° |
| 2026-05-07 11:55 | 40.54879 | 4.37363 | 28338 ft | 501 kts | 15° |
| 2026-05-07 11:55 | 40.58220 | 4.38613 | 28583 ft | 497 kts | 5° |
| 2026-05-07 11:55 | 40.61616 | 4.39429 | 28806 ft | 498 kts | 4° |
| 2026-05-07 11:56 | 40.65041 | 4.40245 | 29031 ft | 500 kts | 4° |
| 2026-05-07 11:56 | 40.68471 | 4.41068 | 29256 ft | 503 kts | 4° |
| 2026-05-07 11:56 | 40.71926 | 4.41899 | 29473 ft | 505 kts | 4° |
| 2026-05-07 11:56 | 40.75379 | 4.42730 | 29735 ft | 505 kts | 4° |
| 2026-05-07 11:57 | 40.78842 | 4.43565 | 30038 ft | 506 kts | 4° |
| 2026-05-07 11:57 | 40.82307 | 4.44402 | 30300 ft | 506 kts | 4° |
| 2026-05-07 11:57 | 40.85765 | 4.45238 | 30571 ft | 505 kts | 4° |
| 2026-05-07 11:57 | 40.89224 | 4.46074 | 30855 ft | 504 kts | 4° |
| 2026-05-07 11:58 | 40.92676 | 4.46909 | 31152 ft | 503 kts | 4° |
| 2026-05-07 11:58 | 40.96114 | 4.47739 | 31443 ft | 502 kts | 4° |
| 2026-05-07 11:58 | 40.99535 | 4.48566 | 31745 ft | 501 kts | 4° |
| 2026-05-07 11:58 | 41.02962 | 4.49398 | 32046 ft | 500 kts | 4° |
| 2026-05-07 11:59 | 41.06373 | 4.50228 | 32342 ft | 498 kts | 4° |
| 2026-05-07 11:59 | 41.09787 | 4.51059 | 32644 ft | 497 kts | 4° |
| 2026-05-07 11:59 | 41.13183 | 4.51889 | 32952 ft | 496 kts | 4° |
| 2026-05-07 11:59 | 41.16573 | 4.52717 | 33249 ft | 495 kts | 4° |
| 2026-05-07 12:00 | 41.19949 | 4.53538 | 33549 ft | 493 kts | 4° |
| 2026-05-07 12:00 | 41.23328 | 4.54359 | 33847 ft | 492 kts | 4° |
| 2026-05-07 12:00 | 41.26685 | 4.55177 | 34123 ft | 491 kts | 4° |
| 2026-05-07 12:00 | 41.30046 | 4.55999 | 34371 ft | 490 kts | 4° |
| 2026-05-07 12:01 | 41.33398 | 4.56820 | 34604 ft | 490 kts | 4° |
| 2026-05-07 12:01 | 41.36750 | 4.57644 | 34837 ft | 489 kts | 5° |
| 2026-05-07 12:01 | 41.40094 | 4.58470 | 35064 ft | 489 kts | 5° |
| 2026-05-07 12:01 | 41.43435 | 4.59294 | 35263 ft | 488 kts | 5° |
| 2026-05-07 12:02 | 41.46778 | 4.60115 | 35473 ft | 488 kts | 5° |
| 2026-05-07 12:02 | 41.50109 | 4.60932 | 35676 ft | 487 kts | 5° |
| 2026-05-07 12:02 | 41.53441 | 4.61749 | 35877 ft | 487 kts | 5° |
| 2026-05-07 12:02 | 41.56775 | 4.62569 | 36011 ft | 487 kts | 5° |
| 2026-05-07 12:03 | 41.60072 | 4.63382 | 36027 ft | 488 kts | 5° |
| 2026-05-07 12:03 | 41.66745 | 4.65035 | 36024 ft | 487 kts | 5° |
| 2026-05-07 12:04 | 41.73337 | 4.67208 | 36028 ft | 494 kts | 17° |
| 2026-05-07 12:04 | 41.79441 | 4.71558 | 36025 ft | 499 kts | 28° |
| 2026-05-07 12:05 | 41.85393 | 4.76349 | 36030 ft | 499 kts | 28° |
| 2026-05-07 12:05 | 41.91347 | 4.81142 | 36032 ft | 499 kts | 27° |
| 2026-05-07 12:06 | 41.97305 | 4.85936 | 36037 ft | 499 kts | 27° |
| 2026-05-07 12:06 | 42.03251 | 4.90747 | 36042 ft | 498 kts | 28° |
| 2026-05-07 12:07 | 42.09187 | 4.95571 | 36049 ft | 498 kts | 28° |
| 2026-05-07 12:07 | 42.15115 | 5.00391 | 36053 ft | 497 kts | 27° |
| 2026-05-07 12:08 | 42.21036 | 5.05209 | 36047 ft | 497 kts | 28° |
| 2026-05-07 12:08 | 42.26951 | 5.10033 | 36043 ft | 496 kts | 28° |
| 2026-05-07 12:09 | 42.32819 | 5.14833 | 36043 ft | 496 kts | 28° |
| 2026-05-07 12:09 | 42.38715 | 5.19672 | 36039 ft | 495 kts | 28° |
| 2026-05-07 12:10 | 42.44604 | 5.24514 | 36039 ft | 495 kts | 28° |
| 2026-05-07 12:10 | 42.50476 | 5.29350 | 36037 ft | 494 kts | 28° |
| 2026-05-07 12:11 | 42.56348 | 5.34197 | 36032 ft | 493 kts | 28° |
| 2026-05-07 12:11 | 42.62206 | 5.39045 | 36029 ft | 493 kts | 28° |
| 2026-05-07 12:12 | 42.68064 | 5.43897 | 36026 ft | 492 kts | 28° |
| 2026-05-07 12:12 | 42.73908 | 5.48747 | 36026 ft | 492 kts | 28° |
| 2026-05-07 12:13 | 42.79742 | 5.53603 | 36024 ft | 492 kts | 28° |
| 2026-05-07 12:13 | 42.85579 | 5.58474 | 36019 ft | 491 kts | 28° |
| 2026-05-07 12:14 | 42.91358 | 5.63309 | 36018 ft | 491 kts | 28° |
| 2026-05-07 12:14 | 42.97177 | 5.68199 | 36019 ft | 491 kts | 28° |
| 2026-05-07 12:15 | 43.02988 | 5.73080 | 36008 ft | 490 kts | 28° |
| 2026-05-07 12:15 | 43.08801 | 5.77975 | 36012 ft | 490 kts | 28° |
| 2026-05-07 12:16 | 43.14605 | 5.82874 | 36004 ft | 490 kts | 28° |
| 2026-05-07 12:16 | 43.20412 | 5.87780 | 36011 ft | 490 kts | 28° |
| 2026-05-07 12:17 | 43.26208 | 5.92689 | 36006 ft | 489 kts | 28° |
| 2026-05-07 12:17 | 43.31997 | 5.97613 | 36000 ft | 489 kts | 28° |
| 2026-05-07 12:18 | 43.37911 | 6.02190 | 35985 ft | 484 kts | 18° |
| 2026-05-07 12:18 | 43.44324 | 6.04522 | 35981 ft | 472 kts | 0° |
| 2026-05-07 12:19 | 43.49747 | 6.05081 | 35987 ft | 470 kts | 359° |
| 2026-05-07 12:19 | 43.56278 | 6.05730 | 35985 ft | 470 kts | 359° |
| 2026-05-07 12:20 | 43.62805 | 6.06398 | 35982 ft | 470 kts | 359° |
| 2026-05-07 12:20 | 43.69326 | 6.07063 | 35979 ft | 470 kts | 359° |
| 2026-05-07 12:21 | 43.75837 | 6.07989 | 35982 ft | 475 kts | 7° |
| 2026-05-07 12:21 | 43.82084 | 6.11185 | 35985 ft | 484 kts | 22° |
| 2026-05-07 12:22 | 43.88124 | 6.15322 | 35983 ft | 484 kts | 22° |
| 2026-05-07 12:22 | 43.94170 | 6.19439 | 35980 ft | 483 kts | 22° |
| 2026-05-07 12:23 | 44.00204 | 6.23563 | 35982 ft | 483 kts | 22° |
| 2026-05-07 12:23 | 44.06226 | 6.27700 | 35976 ft | 482 kts | 22° |
| 2026-05-07 12:24 | 44.12247 | 6.31841 | 35979 ft | 482 kts | 22° |
| 2026-05-07 12:24 | 44.18263 | 6.35987 | 35978 ft | 482 kts | 22° |
| 2026-05-07 12:25 | 44.24286 | 6.40140 | 35975 ft | 482 kts | 22° |
| 2026-05-07 12:25 | 44.30298 | 6.44294 | 35983 ft | 482 kts | 22° |
| 2026-05-07 12:26 | 44.36319 | 6.48468 | 35980 ft | 482 kts | 22° |
| 2026-05-07 12:26 | 44.42330 | 6.52652 | 35984 ft | 482 kts | 22° |
| 2026-05-07 12:27 | 44.48334 | 6.56839 | 35985 ft | 482 kts | 22° |
| 2026-05-07 12:27 | 44.54335 | 6.61029 | 35981 ft | 481 kts | 22° |
| 2026-05-07 12:28 | 44.60329 | 6.65210 | 35982 ft | 481 kts | 22° |
| 2026-05-07 12:28 | 44.66276 | 6.69373 | 35985 ft | 481 kts | 22° |
| 2026-05-07 12:29 | 44.72248 | 6.73572 | 35982 ft | 480 kts | 22° |
| 2026-05-07 12:29 | 44.78327 | 6.77340 | 35982 ft | 472 kts | 11° |
| 2026-05-07 12:30 | 44.84707 | 6.78707 | 35980 ft | 458 kts | 354° |
| 2026-05-07 12:30 | 44.91047 | 6.78313 | 35981 ft | 456 kts | 351° |
| 2026-05-07 12:31 | 44.97386 | 6.77886 | 35980 ft | 455 kts | 352° |
| 2026-05-07 12:31 | 45.03720 | 6.77485 | 35996 ft | 456 kts | 352° |
| 2026-05-07 12:32 | 45.10058 | 6.77068 | 35996 ft | 456 kts | 352° |
| 2026-05-07 12:32 | 45.16406 | 6.76648 | 36001 ft | 456 kts | 352° |
| 2026-05-07 12:33 | 45.25917 | 6.76015 | 36010 ft | 456 kts | 352° |
| 2026-05-07 12:33 | 45.32218 | 6.75592 | 36007 ft | 456 kts | 352° |
| 2026-05-07 12:34 | 45.38554 | 6.75175 | 36011 ft | 456 kts | 352° |
| 2026-05-07 12:34 | 45.44930 | 6.75663 | 36012 ft | 466 kts | 8° |
| 2026-05-07 12:35 | 45.51022 | 6.79066 | 36015 ft | 477 kts | 26° |
| 2026-05-07 12:35 | 45.56759 | 6.83838 | 36018 ft | 477 kts | 26° |
| 2026-05-07 12:36 | 45.62493 | 6.88597 | 36018 ft | 477 kts | 26° |
| 2026-05-07 12:36 | 45.68236 | 6.93367 | 36005 ft | 477 kts | 26° |
| 2026-05-07 12:37 | 45.73969 | 6.98152 | 36001 ft | 477 kts | 26° |
| 2026-05-07 12:37 | 45.79698 | 7.02948 | 35995 ft | 477 kts | 26° |
| 2026-05-07 12:38 | 45.85422 | 7.07756 | 35999 ft | 476 kts | 26° |
| 2026-05-07 12:38 | 45.91135 | 7.12573 | 35997 ft | 476 kts | 26° |
| 2026-05-07 12:39 | 45.96846 | 7.17392 | 35997 ft | 476 kts | 26° |
| 2026-05-07 12:39 | 46.02526 | 7.22192 | 36019 ft | 476 kts | 26° |
| 2026-05-07 12:40 | 46.08227 | 7.27029 | 36012 ft | 476 kts | 27° |
| 2026-05-07 12:40 | 46.13924 | 7.31867 | 36018 ft | 475 kts | 27° |
| 2026-05-07 12:41 | 46.19614 | 7.36709 | 36022 ft | 475 kts | 27° |
| 2026-05-07 12:41 | 46.25291 | 7.41572 | 36014 ft | 474 kts | 27° |
| 2026-05-07 12:42 | 46.30968 | 7.46443 | 36016 ft | 474 kts | 27° |
| 2026-05-07 12:42 | 46.36629 | 7.51316 | 36013 ft | 474 kts | 27° |
| 2026-05-07 12:43 | 46.42292 | 7.56198 | 36014 ft | 473 kts | 27° |
| 2026-05-07 12:43 | 46.47953 | 7.61073 | 36016 ft | 473 kts | 27° |
| 2026-05-07 12:44 | 46.53607 | 7.65962 | 36018 ft | 473 kts | 27° |
| 2026-05-07 12:44 | 46.59251 | 7.70861 | 36022 ft | 472 kts | 27° |
| 2026-05-07 12:45 | 46.64952 | 7.75458 | 36030 ft | 471 kts | 24° |
| 2026-05-07 12:45 | 46.70784 | 7.79799 | 36032 ft | 470 kts | 24° |
| 2026-05-07 12:46 | 46.76605 | 7.84144 | 36038 ft | 470 kts | 24° |
| 2026-05-07 12:46 | 46.82393 | 7.88594 | 36040 ft | 470 kts | 25° |
| 2026-05-07 12:47 | 46.88172 | 7.93097 | 36043 ft | 470 kts | 25° |
| 2026-05-07 12:47 | 46.93947 | 7.97591 | 36041 ft | 470 kts | 25° |
| 2026-05-07 12:48 | 46.99732 | 8.02079 | 36041 ft | 470 kts | 25° |
| 2026-05-07 12:48 | 47.05509 | 8.06565 | 36044 ft | 470 kts | 25° |
| 2026-05-07 12:49 | 47.11280 | 8.11057 | 36042 ft | 469 kts | 25° |
| 2026-05-07 12:49 | 47.16717 | 8.15300 | 36044 ft | 469 kts | 25° |
| 2026-05-07 12:50 | 47.22472 | 8.19817 | 36041 ft | 469 kts | 25° |
| 2026-05-07 12:50 | 47.28224 | 8.24349 | 36040 ft | 469 kts | 25° |
| 2026-05-07 12:51 | 47.33975 | 8.28888 | 36055 ft | 469 kts | 25° |
| 2026-05-07 12:51 | 47.39723 | 8.33436 | 36062 ft | 469 kts | 25° |
| 2026-05-07 12:52 | 47.45471 | 8.37979 | 36066 ft | 468 kts | 26° |
| 2026-05-07 12:52 | 47.51177 | 8.42505 | 36069 ft | 468 kts | 26° |
| 2026-05-07 12:53 | 47.56916 | 8.47083 | 36065 ft | 468 kts | 26° |
| 2026-05-07 12:53 | 47.62648 | 8.51656 | 36060 ft | 468 kts | 26° |
| 2026-05-07 12:54 | 47.68383 | 8.56248 | 36057 ft | 468 kts | 26° |
| 2026-05-07 12:54 | 47.74112 | 8.60837 | 36049 ft | 468 kts | 26° |
| 2026-05-07 12:55 | 47.79834 | 8.65441 | 36046 ft | 468 kts | 26° |
| 2026-05-07 12:55 | 47.85549 | 8.70057 | 36044 ft | 467 kts | 26° |
| 2026-05-07 12:56 | 47.91275 | 8.74670 | 36045 ft | 467 kts | 26° |
| 2026-05-07 12:56 | 47.96991 | 8.79289 | 36045 ft | 467 kts | 26° |
| 2026-05-07 12:57 | 48.02704 | 8.83923 | 36041 ft | 467 kts | 26° |
| 2026-05-07 12:57 | 48.08405 | 8.88574 | 36039 ft | 467 kts | 26° |
| 2026-05-07 12:58 | 48.14130 | 8.93180 | 36032 ft | 466 kts | 22° |
| 2026-05-07 12:58 | 48.20254 | 8.95867 | 36037 ft | 459 kts | 4° |
| 2026-05-07 12:59 | 48.26610 | 8.96812 | 36033 ft | 459 kts | 3° |
| 2026-05-07 12:59 | 48.32963 | 8.97778 | 36033 ft | 459 kts | 4° |
| 2026-05-07 13:00 | 48.39319 | 8.98769 | 36033 ft | 459 kts | 4° |
| 2026-05-07 13:00 | 48.45688 | 8.99741 | 35437 ft | 459 kts | 3° |
| 2026-05-07 13:01 | 48.48861 | 9.00222 | 34958 ft | 457 kts | 4° |
| 2026-05-07 13:01 | 48.52022 | 9.00705 | 34493 ft | 456 kts | 4° |
| 2026-05-07 13:01 | 48.55165 | 9.01186 | 34028 ft | 454 kts | 4° |
| 2026-05-07 13:01 | 48.58314 | 9.01666 | 33466 ft | 453 kts | 4° |
| 2026-05-07 13:02 | 48.61445 | 9.02144 | 32923 ft | 453 kts | 4° |
| 2026-05-07 13:02 | 48.64579 | 9.02666 | 32386 ft | 453 kts | 5° |
| 2026-05-07 13:02 | 48.67699 | 9.03319 | 31861 ft | 453 kts | 7° |
| 2026-05-07 13:02 | 48.70806 | 9.04074 | 31354 ft | 453 kts | 8° |
| 2026-05-07 13:03 | 48.73918 | 9.04885 | 30854 ft | 453 kts | 8° |
| 2026-05-07 13:03 | 48.77023 | 9.05702 | 30347 ft | 453 kts | 8° |
| 2026-05-07 13:03 | 48.80129 | 9.06498 | 29817 ft | 453 kts | 8° |
| 2026-05-07 13:03 | 48.83229 | 9.07265 | 29232 ft | 450 kts | 7° |
| 2026-05-07 13:04 | 48.86313 | 9.08005 | 28673 ft | 447 kts | 7° |
| 2026-05-07 13:04 | 48.89368 | 9.08701 | 28118 ft | 443 kts | 6° |
| 2026-05-07 13:04 | 48.91390 | 9.09082 | 27758 ft | 440 kts | 4° |
| 2026-05-07 13:04 | 48.95402 | 9.09667 | 27050 ft | 435 kts | 2° |
| 2026-05-07 13:05 | 48.97437 | 9.09913 | 26698 ft | 432 kts | 2° |
| 2026-05-07 13:05 | 49.01389 | 9.10370 | 26012 ft | 428 kts | 2° |
| 2026-05-07 13:05 | 49.03385 | 9.10612 | 25673 ft | 426 kts | 2° |
| 2026-05-07 13:05 | 49.07282 | 9.11120 | 25016 ft | 422 kts | 2° |
| 2026-05-07 13:06 | 49.09260 | 9.11394 | 24688 ft | 420 kts | 2° |
| 2026-05-07 13:06 | 49.12161 | 9.11808 | 24205 ft | 417 kts | 2° |
| 2026-05-07 13:06 | 49.15042 | 9.12230 | 23733 ft | 414 kts | 3° |
| 2026-05-07 13:06 | 49.17905 | 9.12655 | 23203 ft | 412 kts | 3° |
| 2026-05-07 13:07 | 49.20743 | 9.13071 | 22651 ft | 409 kts | 2° |
| 2026-05-07 13:07 | 49.23565 | 9.13482 | 22112 ft | 406 kts | 2° |
| 2026-05-07 13:07 | 49.26363 | 9.13884 | 21558 ft | 403 kts | 2° |
| 2026-05-07 13:07 | 49.29104 | 9.14422 | 21061 ft | 402 kts | 9° |
| 2026-05-07 13:08 | 49.31853 | 9.15378 | 20548 ft | 399 kts | 11° |
| 2026-05-07 13:08 | 49.34551 | 9.16334 | 20041 ft | 397 kts | 11° |
| 2026-05-07 13:08 | 49.37198 | 9.17279 | 19554 ft | 394 kts | 11° |
| 2026-05-07 13:08 | 49.39863 | 9.18231 | 19068 ft | 392 kts | 11° |
| 2026-05-07 13:09 | 49.42505 | 9.19172 | 18587 ft | 389 kts | 11° |
| 2026-05-07 13:09 | 49.45139 | 9.20109 | 18083 ft | 386 kts | 11° |
| 2026-05-07 13:09 | 49.47749 | 9.21037 | 17541 ft | 384 kts | 11° |
| 2026-05-07 13:09 | 49.50344 | 9.21959 | 17007 ft | 381 kts | 11° |
| 2026-05-07 13:10 | 49.52917 | 9.22874 | 16484 ft | 378 kts | 11° |
| 2026-05-07 13:10 | 49.55473 | 9.23786 | 15973 ft | 376 kts | 11° |
| 2026-05-07 13:10 | 49.58008 | 9.24691 | 15462 ft | 373 kts | 11° |
| 2026-05-07 13:10 | 49.60528 | 9.25590 | 14961 ft | 368 kts | 11° |
| 2026-05-07 13:11 | 49.62971 | 9.26465 | 14464 ft | 352 kts | 11° |
| 2026-05-07 13:11 | 49.65310 | 9.27307 | 13983 ft | 338 kts | 11° |
| 2026-05-07 13:11 | 49.67563 | 9.28117 | 13462 ft | 326 kts | 11° |
| 2026-05-07 13:11 | 49.69734 | 9.28900 | 12936 ft | 316 kts | 11° |
| 2026-05-07 13:12 | 49.71856 | 9.29628 | 12427 ft | 313 kts | 6° |
| 2026-05-07 13:12 | 49.74004 | 9.29568 | 11903 ft | 309 kts | 346° |
| 2026-05-07 13:12 | 49.75933 | 9.28358 | 11397 ft | 295 kts | 324° |
| 2026-05-07 13:12 | 49.77395 | 9.26246 | 10893 ft | 284 kts | 307° |
| 2026-05-07 13:13 | 49.78565 | 9.23850 | 10411 ft | 276 kts | 307° |
| 2026-05-07 13:13 | 49.79713 | 9.21507 | 9920 ft | 269 kts | 307° |
| 2026-05-07 13:13 | 49.80831 | 9.19233 | 9386 ft | 263 kts | 307° |
| 2026-05-07 13:13 | 49.81925 | 9.17006 | 8904 ft | 255 kts | 307° |
| 2026-05-07 13:14 | 49.82982 | 9.14854 | 8523 ft | 249 kts | 307° |
| 2026-05-07 13:14 | 49.84027 | 9.12722 | 8139 ft | 249 kts | 307° |
| 2026-05-07 13:14 | 49.85073 | 9.10590 | 7752 ft | 248 kts | 307° |
| 2026-05-07 13:14 | 49.86115 | 9.08465 | 7367 ft | 248 kts | 307° |
| 2026-05-07 13:15 | 49.87155 | 9.06332 | 6990 ft | 247 kts | 307° |
| 2026-05-07 13:15 | 49.88179 | 9.04227 | 6613 ft | 241 kts | 307° |
| 2026-05-07 13:15 | 49.89168 | 9.02196 | 6231 ft | 232 kts | 307° |
| 2026-05-07 13:15 | 49.90131 | 9.00222 | 5831 ft | 228 kts | 307° |
| 2026-05-07 13:16 | 49.91100 | 8.98285 | 5458 ft | 227 kts | 311° |
| 2026-05-07 13:16 | 49.92205 | 8.96522 | 5081 ft | 228 kts | 318° |
| 2026-05-07 13:16 | 49.93439 | 8.95014 | 4993 ft | 226 kts | 325° |
| 2026-05-07 13:16 | 49.94789 | 8.93747 | 4995 ft | 227 kts | 332° |
| 2026-05-07 13:17 | 49.96235 | 8.92744 | 4997 ft | 228 kts | 339° |
| 2026-05-07 13:17 | 49.97752 | 8.92043 | 4996 ft | 228 kts | 346° |
| 2026-05-07 13:17 | 49.99327 | 8.91650 | 4998 ft | 229 kts | 353° |
| 2026-05-07 13:17 | 50.00917 | 8.91564 | 4997 ft | 230 kts | 0° |
| 2026-05-07 13:18 | 50.02449 | 8.92116 | 4995 ft | 232 kts | 30° |
| 2026-05-07 13:18 | 50.03504 | 8.93986 | 4996 ft | 236 kts | 65° |
| 2026-05-07 13:18 | 50.04082 | 8.96394 | 4998 ft | 238 kts | 68° |
| 2026-05-07 13:18 | 50.04647 | 8.98815 | 4994 ft | 239 kts | 68° |
| 2026-05-07 13:19 | 50.05216 | 9.01262 | 4837 ft | 240 kts | 68° |
| 2026-05-07 13:19 | 50.05800 | 9.03681 | 4572 ft | 237 kts | 62° |
| 2026-05-07 13:19 | 50.06830 | 9.05577 | 4314 ft | 229 kts | 29° |
| 2026-05-07 13:19 | 50.08318 | 9.06259 | 4071 ft | 223 kts | 355° |
| 2026-05-07 13:20 | 50.09754 | 9.05514 | 3985 ft | 221 kts | 322° |
| 2026-05-07 13:20 | 50.10669 | 9.03617 | 3990 ft | 223 kts | 291° |
| 2026-05-07 13:20 | 50.11112 | 9.01295 | 3990 ft | 225 kts | 285° |
| 2026-05-07 13:20 | 50.11473 | 8.98927 | 3992 ft | 225 kts | 284° |
| 2026-05-07 13:21 | 50.11819 | 8.96550 | 3992 ft | 225 kts | 284° |
| 2026-05-07 13:21 | 50.12108 | 8.94147 | 3993 ft | 226 kts | 273° |
| 2026-05-07 13:21 | 50.11832 | 8.91740 | 3996 ft | 229 kts | 251° |
| 2026-05-07 13:21 | 50.11283 | 8.89425 | 3996 ft | 225 kts | 252° |
| 2026-05-07 13:22 | 50.10762 | 8.87224 | 3992 ft | 209 kts | 252° |
| 2026-05-07 13:22 | 50.10279 | 8.85176 | 3969 ft | 194 kts | 252° |
| 2026-05-07 13:22 | 50.09822 | 8.83233 | 3719 ft | 189 kts | 252° |
| 2026-05-07 13:22 | 50.09386 | 8.81381 | 3482 ft | 175 kts | 252° |
| 2026-05-07 13:23 | 50.08984 | 8.79678 | 3276 ft | 162 kts | 252° |
| 2026-05-07 13:23 | 50.08606 | 8.78074 | 3047 ft | 154 kts | 252° |
| 2026-05-07 13:23 | 50.08249 | 8.76563 | 2849 ft | 146 kts | 252° |
| 2026-05-07 13:23 | 50.07895 | 8.75063 | 2646 ft | 151 kts | 252° |
| 2026-05-07 13:24 | 50.07535 | 8.73509 | 2448 ft | 153 kts | 255° |
| 2026-05-07 13:24 | 50.07320 | 8.71891 | 2274 ft | 153 kts | 263° |
| 2026-05-07 13:24 | 50.07138 | 8.70278 | 2097 ft | 149 kts | 261° |
| 2026-05-07 13:24 | 50.06886 | 8.68719 | 1887 ft | 148 kts | 256° |
| 2026-05-07 13:25 | 50.06547 | 8.67215 | 1674 ft | 147 kts | 251° |
| 2026-05-07 13:25 | 50.06171 | 8.65738 | 1445 ft | 147 kts | 250° |
| 2026-05-07 13:25 | 50.05811 | 8.64280 | 1274 ft | 145 kts | 251° |
| 2026-05-07 13:25 | 50.05480 | 8.62798 | 1124 ft | 144 kts | 252° |
| 2026-05-07 13:26 | 50.05152 | 8.61336 | 883 ft | 143 kts | 250° |
| 2026-05-07 13:26 | 50.04800 | 8.59916 | 630 ft | 140 kts | 249° |
| 2026-05-07 13:26 | 50.04465 | 8.58503 | 400 ft | 138 kts | 249° |
| 2026-05-07 13:26 | 50.04162 | 8.57222 | 370 ft | 99 kts | 249° |
| 2026-05-07 13:27 | 50.04005 | 8.56571 | 361 ft | 43 kts | 251° |
| 2026-05-07 13:27 | 50.04000 | 8.56279 | 351 ft | 15 kts | 256° |
| 2026-05-07 13:27 | 50.04028 | 8.56139 | 357 ft | 15 kts | 296° |
| 2026-05-07 13:27 | 50.04077 | 8.55996 | 360 ft | 15 kts | 310° |
| 2026-05-07 13:28 | 50.04162 | 8.55936 | 357 ft | 13 kts | 340° |
| 2026-05-07 13:28 | 50.04216 | 8.55861 | 357 ft | 9 kts | 283° |
| 2026-05-07 13:28 | 50.04198 | 8.55763 | 353 ft | 10 kts | 248° |
| 2026-05-07 13:28 | 50.04169 | 8.55649 | 352 ft | 13 kts | 249° |
| 2026-05-07 13:29 | 50.04127 | 8.55581 | 352 ft | 8 kts | 169° |
| 2026-05-07 13:29 | 50.04076 | 8.55611 | 356 ft | 8 kts | 159° |
| 2026-05-07 13:29 | 50.04066 | 8.55616 | 353 ft | 0 kts | 160° |